sensor_id;sensor_type;location;lat;lon;timestamp;P1;durP1;ratioP1;P2;durP2;ratioP2
29382;SDS011;16365;51.598;7.668;2023-02-12T00:00:39;84.68;;;42.67;;
29382;SDS011;16365;51.598;7.668;2023-02-12T00:03:08;87.30;;;44.78;;
29382;SDS011;16365;51.598;7.668;2023-02-12T00:05:37;89.47;;;44.50;;
29382;SDS011;16365;51.598;7.668;2023-02-12T00:08:09;96.70;;;44.67;;
29382;SDS011;16365;51.598;7.668;2023-02-12T00:10:40;92.45;;;44.30;;
29382;SDS011;16365;51.598;7.668;2023-02-12T00:13:08;88.85;;;43.75;;
29382;SDS011;16365;51.598;7.668;2023-02-12T00:15:39;86.65;;;43.78;;
29382;SDS011;16365;51.598;7.668;2023-02-12T00:18:07;88.15;;;42.67;;
29382;SDS011;16365;51.598;7.668;2023-02-12T00:20:34;88.05;;;43.50;;
29382;SDS011;16365;51.598;7.668;2023-02-12T00:23:01;88.78;;;44.90;;
29382;SDS011;16365;51.598;7.668;2023-02-12T00:25:28;89.20;;;44.38;;
29382;SDS011;16365;51.598;7.668;2023-02-12T00:27:54;88.18;;;44.03;;
29382;SDS011;16365;51.598;7.668;2023-02-12T00:30:21;77.00;;;40.08;;
29382;SDS011;16365;51.598;7.668;2023-02-12T00:32:47;83.07;;;42.30;;
29382;SDS011;16365;51.598;7.668;2023-02-12T00:35:13;87.55;;;44.65;;
29382;SDS011;16365;51.598;7.668;2023-02-12T00:37:41;84.75;;;42.00;;
29382;SDS011;16365;51.598;7.668;2023-02-12T00:40:08;81.15;;;40.78;;
29382;SDS011;16365;51.598;7.668;2023-02-12T00:42:35;90.68;;;42.58;;
29382;SDS011;16365;51.598;7.668;2023-02-12T00:45:01;86.43;;;40.95;;
29382;SDS011;16365;51.598;7.668;2023-02-12T00:47:27;85.32;;;42.00;;
29382;SDS011;16365;51.598;7.668;2023-02-12T00:49:54;84.70;;;42.72;;
29382;SDS011;16365;51.598;7.668;2023-02-12T00:52:20;89.15;;;43.78;;
29382;SDS011;16365;51.598;7.668;2023-02-12T00:54:47;84.18;;;41.97;;
29382;SDS011;16365;51.598;7.668;2023-02-12T00:57:13;88.90;;;43.22;;
29382;SDS011;16365;51.598;7.668;2023-02-12T00:59:40;86.53;;;43.45;;
29382;SDS011;16365;51.598;7.668;2023-02-12T01:02:07;76.70;;;39.33;;
29382;SDS011;16365;51.598;7.668;2023-02-12T01:04:34;81.97;;;41.05;;
29382;SDS011;16365;51.598;7.668;2023-02-12T01:07:01;84.82;;;41.47;;
29382;SDS011;16365;51.598;7.668;2023-02-12T01:09:27;80.25;;;38.20;;
29382;SDS011;16365;51.598;7.668;2023-02-12T01:11:54;81.05;;;40.90;;
29382;SDS011;16365;51.598;7.668;2023-02-12T01:14:20;85.78;;;42.28;;
29382;SDS011;16365;51.598;7.668;2023-02-12T01:16:47;78.13;;;39.83;;
29382;SDS011;16365;51.598;7.668;2023-02-12T01:19:13;83.70;;;39.08;;
29382;SDS011;16365;51.598;7.668;2023-02-12T01:21:40;84.78;;;41.78;;
29382;SDS011;16365;51.598;7.668;2023-02-12T01:24:07;84.78;;;41.03;;
29382;SDS011;16365;51.598;7.668;2023-02-12T01:26:33;73.65;;;38.20;;
29382;SDS011;16365;51.598;7.668;2023-02-12T01:29:01;81.05;;;40.80;;
29382;SDS011;16365;51.598;7.668;2023-02-12T01:31:30;79.30;;;39.85;;
29382;SDS011;16365;51.598;7.668;2023-02-12T01:33:58;89.68;;;41.45;;
29382;SDS011;16365;51.598;7.668;2023-02-12T01:36:27;86.00;;;41.47;;
29382;SDS011;16365;51.598;7.668;2023-02-12T01:38:54;80.40;;;39.00;;
29382;SDS011;16365;51.598;7.668;2023-02-12T01:41:24;77.90;;;39.05;;
29382;SDS011;16365;51.598;7.668;2023-02-12T01:46:47;76.43;;;39.95;;
29382;SDS011;16365;51.598;7.668;2023-02-12T01:49:29;78.28;;;38.72;;
29382;SDS011;16365;51.598;7.668;2023-02-12T01:54:52;77.22;;;39.05;;
29382;SDS011;16365;51.598;7.668;2023-02-12T01:57:23;80.68;;;38.95;;
29382;SDS011;16365;51.598;7.668;2023-02-12T01:59:52;74.82;;;37.80;;
29382;SDS011;16365;51.598;7.668;2023-02-12T02:02:21;69.88;;;34.60;;
29382;SDS011;16365;51.598;7.668;2023-02-12T02:04:58;69.47;;;34.72;;
29382;SDS011;16365;51.598;7.668;2023-02-12T02:07:27;75.38;;;36.10;;
29382;SDS011;16365;51.598;7.668;2023-02-12T02:09:54;80.57;;;39.35;;
29382;SDS011;16365;51.598;7.668;2023-02-12T02:12:23;76.55;;;38.33;;
29382;SDS011;16365;51.598;7.668;2023-02-12T02:15:09;79.03;;;38.72;;
29382;SDS011;16365;51.598;7.668;2023-02-12T02:17:50;77.95;;;38.65;;
29382;SDS011;16365;51.598;7.668;2023-02-12T02:28:58;75.15;;;38.80;;
29382;SDS011;16365;51.598;7.668;2023-02-12T02:31:41;78.88;;;38.40;;
29382;SDS011;16365;51.598;7.668;2023-02-12T02:39:40;66.90;;;34.75;;
29382;SDS011;16365;51.598;7.668;2023-02-12T02:42:15;77.18;;;37.92;;
29382;SDS011;16365;51.598;7.668;2023-02-12T02:44:49;68.57;;;35.30;;
29382;SDS011;16365;51.598;7.668;2023-02-12T02:47:20;81.47;;;37.72;;
29382;SDS011;16365;51.598;7.668;2023-02-12T02:50:02;76.38;;;36.75;;
29382;SDS011;16365;51.598;7.668;2023-02-12T02:52:40;74.50;;;37.33;;
29382;SDS011;16365;51.598;7.668;2023-02-12T02:55:13;74.57;;;37.25;;
29382;SDS011;16365;51.598;7.668;2023-02-12T02:57:45;71.35;;;35.50;;
29382;SDS011;16365;51.598;7.668;2023-02-12T03:00:17;71.22;;;35.13;;
29382;SDS011;16365;51.598;7.668;2023-02-12T03:02:49;67.95;;;35.75;;
29382;SDS011;16365;51.598;7.668;2023-02-12T03:05:23;78.55;;;36.55;;
29382;SDS011;16365;51.598;7.668;2023-02-12T03:07:58;70.00;;;35.13;;
29382;SDS011;16365;51.598;7.668;2023-02-12T03:10:30;71.70;;;35.25;;
29382;SDS011;16365;51.598;7.668;2023-02-12T03:16:04;65.50;;;33.05;;
29382;SDS011;16365;51.598;7.668;2023-02-12T03:18:35;59.70;;;31.52;;
29382;SDS011;16365;51.598;7.668;2023-02-12T03:21:25;69.43;;;34.35;;
29382;SDS011;16365;51.598;7.668;2023-02-12T03:26:51;62.50;;;31.65;;
29382;SDS011;16365;51.598;7.668;2023-02-12T03:29:24;72.38;;;34.50;;
29382;SDS011;16365;51.598;7.668;2023-02-12T03:32:15;72.20;;;33.45;;
29382;SDS011;16365;51.598;7.668;2023-02-12T03:37:42;67.57;;;33.33;;
29382;SDS011;16365;51.598;7.668;2023-02-12T03:40:18;74.03;;;34.38;;
29382;SDS011;16365;51.598;7.668;2023-02-12T03:51:31;71.70;;;34.00;;
29382;SDS011;16365;51.598;7.668;2023-02-12T03:53:40;72.13;;;34.03;;
29382;SDS011;16365;51.598;7.668;2023-02-12T03:56:11;68.60;;;34.65;;
29382;SDS011;16365;51.598;7.668;2023-02-12T03:58:41;70.53;;;35.08;;
29382;SDS011;16365;51.598;7.668;2023-02-12T04:01:09;72.18;;;36.22;;
29382;SDS011;16365;51.598;7.668;2023-02-12T04:03:37;72.32;;;34.90;;
29382;SDS011;16365;51.598;7.668;2023-02-12T04:06:04;74.05;;;36.20;;
29382;SDS011;16365;51.598;7.668;2023-02-12T04:08:31;71.85;;;36.78;;
29382;SDS011;16365;51.598;7.668;2023-02-12T04:13:59;73.03;;;36.05;;
29382;SDS011;16365;51.598;7.668;2023-02-12T04:16:43;72.85;;;36.10;;
29382;SDS011;16365;51.598;7.668;2023-02-12T04:19:19;72.88;;;36.17;;
29382;SDS011;16365;51.598;7.668;2023-02-12T04:22:06;68.80;;;34.47;;
29382;SDS011;16365;51.598;7.668;2023-02-12T04:24:54;76.68;;;34.40;;
29382;SDS011;16365;51.598;7.668;2023-02-12T04:27:37;64.07;;;33.22;;
29382;SDS011;16365;51.598;7.668;2023-02-12T04:30:20;73.05;;;34.17;;
29382;SDS011;16365;51.598;7.668;2023-02-12T04:32:54;72.82;;;35.47;;
29382;SDS011;16365;51.598;7.668;2023-02-12T04:35:27;80.55;;;36.22;;
29382;SDS011;16365;51.598;7.668;2023-02-12T04:38:10;75.03;;;36.22;;
29382;SDS011;16365;51.598;7.668;2023-02-12T04:41:07;69.90;;;34.53;;
29382;SDS011;16365;51.598;7.668;2023-02-12T04:43:35;77.55;;;35.78;;
29382;SDS011;16365;51.598;7.668;2023-02-12T04:46:03;69.40;;;35.97;;
29382;SDS011;16365;51.598;7.668;2023-02-12T04:50:59;64.80;;;32.38;;
29382;SDS011;16365;51.598;7.668;2023-02-12T04:53:26;71.32;;;34.92;;
29382;SDS011;16365;51.598;7.668;2023-02-12T04:55:52;67.00;;;33.63;;
29382;SDS011;16365;51.598;7.668;2023-02-12T04:58:20;76.20;;;35.50;;
29382;SDS011;16365;51.598;7.668;2023-02-12T05:00:47;69.28;;;33.90;;
29382;SDS011;16365;51.598;7.668;2023-02-12T05:03:13;74.70;;;35.25;;
29382;SDS011;16365;51.598;7.668;2023-02-12T05:05:40;76.65;;;37.35;;
29382;SDS011;16365;51.598;7.668;2023-02-12T05:08:07;72.80;;;35.70;;
29382;SDS011;16365;51.598;7.668;2023-02-12T05:10:34;70.53;;;34.25;;
29382;SDS011;16365;51.598;7.668;2023-02-12T05:13:00;75.72;;;37.10;;
29382;SDS011;16365;51.598;7.668;2023-02-12T05:15:27;72.43;;;37.33;;
29382;SDS011;16365;51.598;7.668;2023-02-12T05:17:53;74.75;;;36.50;;
29382;SDS011;16365;51.598;7.668;2023-02-12T05:20:20;72.88;;;35.13;;
29382;SDS011;16365;51.598;7.668;2023-02-12T05:22:49;75.60;;;36.67;;
29382;SDS011;16365;51.598;7.668;2023-02-12T05:25:17;70.20;;;33.50;;
29382;SDS011;16365;51.598;7.668;2023-02-12T05:27:43;74.00;;;34.00;;
29382;SDS011;16365;51.598;7.668;2023-02-12T05:30:10;72.57;;;35.65;;
29382;SDS011;16365;51.598;7.668;2023-02-12T05:32:37;70.13;;;34.67;;
29382;SDS011;16365;51.598;7.668;2023-02-12T05:35:04;70.03;;;35.38;;
29382;SDS011;16365;51.598;7.668;2023-02-12T05:37:33;64.60;;;33.78;;
29382;SDS011;16365;51.598;7.668;2023-02-12T05:40:02;67.55;;;33.78;;
29382;SDS011;16365;51.598;7.668;2023-02-12T05:42:30;82.22;;;36.63;;
29382;SDS011;16365;51.598;7.668;2023-02-12T05:44:56;77.20;;;35.10;;
29382;SDS011;16365;51.598;7.668;2023-02-12T05:47:23;77.72;;;36.38;;
29382;SDS011;16365;51.598;7.668;2023-02-12T05:49:49;85.80;;;36.60;;
29382;SDS011;16365;51.598;7.668;2023-02-12T05:52:16;71.78;;;34.88;;
29382;SDS011;16365;51.598;7.668;2023-02-12T05:54:42;72.45;;;35.08;;
29382;SDS011;16365;51.598;7.668;2023-02-12T05:57:08;75.10;;;36.30;;
29382;SDS011;16365;51.598;7.668;2023-02-12T05:59:35;70.75;;;35.90;;
29382;SDS011;16365;51.598;7.668;2023-02-12T06:02:01;70.68;;;35.42;;
29382;SDS011;16365;51.598;7.668;2023-02-12T06:04:28;69.00;;;35.83;;
29382;SDS011;16365;51.598;7.668;2023-02-12T06:06:55;71.65;;;35.35;;
29382;SDS011;16365;51.598;7.668;2023-02-12T06:09:22;79.95;;;37.70;;
29382;SDS011;16365;51.598;7.668;2023-02-12T06:11:49;69.85;;;33.35;;
29382;SDS011;16365;51.598;7.668;2023-02-12T06:14:17;67.05;;;34.22;;
29382;SDS011;16365;51.598;7.668;2023-02-12T06:16:46;75.90;;;35.85;;
29382;SDS011;16365;51.598;7.668;2023-02-12T06:19:14;70.45;;;35.50;;
29382;SDS011;16365;51.598;7.668;2023-02-12T06:21:41;68.82;;;34.35;;
29382;SDS011;16365;51.598;7.668;2023-02-12T06:24:08;65.30;;;32.92;;
29382;SDS011;16365;51.598;7.668;2023-02-12T06:26:36;73.45;;;34.65;;
29382;SDS011;16365;51.598;7.668;2023-02-12T06:29:03;71.40;;;33.05;;
29382;SDS011;16365;51.598;7.668;2023-02-12T06:31:30;69.85;;;33.88;;
29382;SDS011;16365;51.598;7.668;2023-02-12T06:34:00;66.95;;;33.85;;
29382;SDS011;16365;51.598;7.668;2023-02-12T06:36:29;58.88;;;29.95;;
29382;SDS011;16365;51.598;7.668;2023-02-12T06:38:55;67.22;;;31.95;;
29382;SDS011;16365;51.598;7.668;2023-02-12T06:41:22;71.50;;;34.13;;
29382;SDS011;16365;51.598;7.668;2023-02-12T06:43:49;72.90;;;34.13;;
29382;SDS011;16365;51.598;7.668;2023-02-12T06:46:15;70.22;;;35.78;;
29382;SDS011;16365;51.598;7.668;2023-02-12T06:48:43;73.85;;;36.13;;
29382;SDS011;16365;51.598;7.668;2023-02-12T06:51:10;72.07;;;35.97;;
29382;SDS011;16365;51.598;7.668;2023-02-12T06:53:38;62.20;;;30.75;;
29382;SDS011;16365;51.598;7.668;2023-02-12T06:56:07;62.67;;;31.95;;
29382;SDS011;16365;51.598;7.668;2023-02-12T06:58:39;62.63;;;32.47;;
29382;SDS011;16365;51.598;7.668;2023-02-12T07:03:39;62.08;;;29.23;;
29382;SDS011;16365;51.598;7.668;2023-02-12T07:06:06;66.45;;;32.05;;
29382;SDS011;16365;51.598;7.668;2023-02-12T07:08:33;60.08;;;30.50;;
29382;SDS011;16365;51.598;7.668;2023-02-12T07:11:00;62.20;;;30.02;;
29382;SDS011;16365;51.598;7.668;2023-02-12T07:13:26;71.18;;;34.28;;
29382;SDS011;16365;51.598;7.668;2023-02-12T07:15:53;67.22;;;34.58;;
29382;SDS011;16365;51.598;7.668;2023-02-12T07:18:20;74.80;;;34.75;;
29382;SDS011;16365;51.598;7.668;2023-02-12T07:20:47;60.92;;;30.58;;
29382;SDS011;16365;51.598;7.668;2023-02-12T07:23:13;71.18;;;36.55;;
29382;SDS011;16365;51.598;7.668;2023-02-12T07:25:40;71.03;;;35.58;;
29382;SDS011;16365;51.598;7.668;2023-02-12T07:28:06;68.30;;;33.78;;
29382;SDS011;16365;51.598;7.668;2023-02-12T07:30:32;64.53;;;32.97;;
29382;SDS011;16365;51.598;7.668;2023-02-12T07:32:59;69.35;;;34.35;;
29382;SDS011;16365;51.598;7.668;2023-02-12T07:35:25;67.47;;;34.38;;
29382;SDS011;16365;51.598;7.668;2023-02-12T07:37:52;63.50;;;32.95;;
29382;SDS011;16365;51.598;7.668;2023-02-12T07:40:18;68.88;;;34.75;;
29382;SDS011;16365;51.598;7.668;2023-02-12T07:42:45;70.60;;;34.42;;
29382;SDS011;16365;51.598;7.668;2023-02-12T07:45:12;66.28;;;35.40;;
29382;SDS011;16365;51.598;7.668;2023-02-12T07:47:38;68.90;;;34.47;;
29382;SDS011;16365;51.598;7.668;2023-02-12T07:50:05;67.82;;;33.97;;
29382;SDS011;16365;51.598;7.668;2023-02-12T07:52:32;64.43;;;31.98;;
29382;SDS011;16365;51.598;7.668;2023-02-12T07:54:59;64.05;;;30.88;;
29382;SDS011;16365;51.598;7.668;2023-02-12T07:57:27;64.38;;;32.47;;
29382;SDS011;16365;51.598;7.668;2023-02-12T07:59:53;70.50;;;32.97;;
29382;SDS011;16365;51.598;7.668;2023-02-12T08:02:20;69.82;;;33.83;;
29382;SDS011;16365;51.598;7.668;2023-02-12T08:04:46;66.82;;;33.35;;
29382;SDS011;16365;51.598;7.668;2023-02-12T08:07:13;66.07;;;34.60;;
29382;SDS011;16365;51.598;7.668;2023-02-12T08:09:39;71.40;;;33.45;;
29382;SDS011;16365;51.598;7.668;2023-02-12T08:12:06;63.72;;;33.20;;
29382;SDS011;16365;51.598;7.668;2023-02-12T08:14:33;70.55;;;33.22;;
29382;SDS011;16365;51.598;7.668;2023-02-12T08:16:59;67.45;;;33.67;;
29382;SDS011;16365;51.598;7.668;2023-02-12T08:19:26;69.88;;;35.35;;
29382;SDS011;16365;51.598;7.668;2023-02-12T08:21:52;67.40;;;35.13;;
29382;SDS011;16365;51.598;7.668;2023-02-12T08:24:20;65.75;;;33.50;;
29382;SDS011;16365;51.598;7.668;2023-02-12T08:26:47;71.32;;;36.65;;
29382;SDS011;16365;51.598;7.668;2023-02-12T08:29:17;72.60;;;35.78;;
29382;SDS011;16365;51.598;7.668;2023-02-12T08:31:46;73.32;;;36.75;;
29382;SDS011;16365;51.598;7.668;2023-02-12T08:36:42;75.68;;;37.53;;
29382;SDS011;16365;51.598;7.668;2023-02-12T08:39:09;72.43;;;35.10;;
29382;SDS011;16365;51.598;7.668;2023-02-12T08:41:36;72.20;;;35.95;;
29382;SDS011;16365;51.598;7.668;2023-02-12T08:44:03;66.10;;;33.63;;
29382;SDS011;16365;51.598;7.668;2023-02-12T08:46:31;75.78;;;36.63;;
29382;SDS011;16365;51.598;7.668;2023-02-12T08:49:01;68.32;;;34.83;;
29382;SDS011;16365;51.598;7.668;2023-02-12T08:51:33;69.20;;;36.05;;
29382;SDS011;16365;51.598;7.668;2023-02-12T08:54:02;73.22;;;37.00;;
29382;SDS011;16365;51.598;7.668;2023-02-12T08:56:32;78.13;;;37.17;;
29382;SDS011;16365;51.598;7.668;2023-02-12T08:59:01;72.10;;;35.80;;
29382;SDS011;16365;51.598;7.668;2023-02-12T09:01:30;75.15;;;36.75;;
29382;SDS011;16365;51.598;7.668;2023-02-12T09:03:59;66.80;;;35.78;;
29382;SDS011;16365;51.598;7.668;2023-02-12T09:06:26;75.50;;;37.20;;
29382;SDS011;16365;51.598;7.668;2023-02-12T09:08:54;70.40;;;36.10;;
29382;SDS011;16365;51.598;7.668;2023-02-12T09:11:22;70.03;;;35.70;;
29382;SDS011;16365;51.598;7.668;2023-02-12T09:13:56;70.20;;;35.47;;
29382;SDS011;16365;51.598;7.668;2023-02-12T09:16:25;66.40;;;35.15;;
29382;SDS011;16365;51.598;7.668;2023-02-12T09:18:52;69.93;;;35.47;;
29382;SDS011;16365;51.598;7.668;2023-02-12T09:21:20;70.68;;;36.60;;
29382;SDS011;16365;51.598;7.668;2023-02-12T09:23:47;68.85;;;35.13;;
29382;SDS011;16365;51.598;7.668;2023-02-12T09:26:15;71.32;;;35.78;;
29382;SDS011;16365;51.598;7.668;2023-02-12T09:28:43;64.47;;;34.05;;
29382;SDS011;16365;51.598;7.668;2023-02-12T09:31:11;63.70;;;34.10;;
29382;SDS011;16365;51.598;7.668;2023-02-12T09:33:42;69.22;;;35.40;;
29382;SDS011;16365;51.598;7.668;2023-02-12T09:36:11;65.90;;;32.97;;
29382;SDS011;16365;51.598;7.668;2023-02-12T09:38:41;64.35;;;33.22;;
29382;SDS011;16365;51.598;7.668;2023-02-12T09:44:18;61.05;;;32.17;;
29382;SDS011;16365;51.598;7.668;2023-02-12T09:47:10;65.25;;;33.30;;
29382;SDS011;16365;51.598;7.668;2023-02-12T09:50:02;60.63;;;31.13;;
29382;SDS011;16365;51.598;7.668;2023-02-12T09:52:38;51.88;;;28.17;;
29382;SDS011;16365;51.598;7.668;2023-02-12T09:55:09;60.70;;;31.27;;
29382;SDS011;16365;51.598;7.668;2023-02-12T09:57:39;64.70;;;32.00;;
29382;SDS011;16365;51.598;7.668;2023-02-12T10:02:36;63.42;;;32.50;;
29382;SDS011;16365;51.598;7.668;2023-02-12T10:05:05;60.55;;;31.10;;
29382;SDS011;16365;51.598;7.668;2023-02-12T10:10:30;60.13;;;32.72;;
29382;SDS011;16365;51.598;7.668;2023-02-12T10:13:18;61.63;;;31.83;;
29382;SDS011;16365;51.598;7.668;2023-02-12T10:18:41;60.05;;;31.48;;
29382;SDS011;16365;51.598;7.668;2023-02-12T10:26:47;56.78;;;29.65;;
29382;SDS011;16365;51.598;7.668;2023-02-12T10:31:44;57.80;;;30.55;;
29382;SDS011;16365;51.598;7.668;2023-02-12T10:36:47;54.55;;;31.08;;
29382;SDS011;16365;51.598;7.668;2023-02-12T10:39:21;55.85;;;30.70;;
29382;SDS011;16365;51.598;7.668;2023-02-12T10:42:11;57.08;;;29.73;;
29382;SDS011;16365;51.598;7.668;2023-02-12T10:44:46;54.65;;;27.90;;
29382;SDS011;16365;51.598;7.668;2023-02-12T10:47:20;52.65;;;28.55;;
29382;SDS011;16365;51.598;7.668;2023-02-12T10:49:50;41.55;;;24.60;;
29382;SDS011;16365;51.598;7.668;2023-02-12T10:52:38;48.83;;;26.27;;
29382;SDS011;16365;51.598;7.668;2023-02-12T10:55:22;39.35;;;23.58;;
29382;SDS011;16365;51.598;7.668;2023-02-12T10:57:57;45.60;;;26.08;;
29382;SDS011;16365;51.598;7.668;2023-02-12T11:00:29;45.10;;;24.73;;
29382;SDS011;16365;51.598;7.668;2023-02-12T11:03:17;39.15;;;23.70;;
29382;SDS011;16365;51.598;7.668;2023-02-12T11:05:47;41.60;;;23.02;;
29382;SDS011;16365;51.598;7.668;2023-02-12T11:11:01;37.25;;;20.52;;
29382;SDS011;16365;51.598;7.668;2023-02-12T11:13:31;41.20;;;20.92;;
29382;SDS011;16365;51.598;7.668;2023-02-12T11:15:58;34.93;;;20.30;;
29382;SDS011;16365;51.598;7.668;2023-02-12T11:18:27;34.58;;;21.33;;
29382;SDS011;16365;51.598;7.668;2023-02-12T11:23:33;34.70;;;21.90;;
29382;SDS011;16365;51.598;7.668;2023-02-12T11:26:04;39.45;;;21.95;;
29382;SDS011;16365;51.598;7.668;2023-02-12T11:28:34;38.90;;;22.10;;
29382;SDS011;16365;51.598;7.668;2023-02-12T11:31:03;38.38;;;22.90;;
29382;SDS011;16365;51.598;7.668;2023-02-12T11:33:46;49.03;;;26.00;;
29382;SDS011;16365;51.598;7.668;2023-02-12T11:36:48;41.55;;;23.65;;
29382;SDS011;16365;51.598;7.668;2023-02-12T11:39:22;42.60;;;24.13;;
29382;SDS011;16365;51.598;7.668;2023-02-12T11:41:54;40.70;;;23.42;;
29382;SDS011;16365;51.598;7.668;2023-02-12T11:46:57;39.05;;;22.20;;
29382;SDS011;16365;51.598;7.668;2023-02-12T11:49:36;42.10;;;24.45;;
29382;SDS011;16365;51.598;7.668;2023-02-12T11:52:36;47.55;;;29.85;;
29382;SDS011;16365;51.598;7.668;2023-02-12T11:55:09;40.97;;;24.63;;
29382;SDS011;16365;51.598;7.668;2023-02-12T11:57:49;41.58;;;22.92;;
29382;SDS011;16365;51.598;7.668;2023-02-12T12:00:21;36.45;;;22.30;;
29382;SDS011;16365;51.598;7.668;2023-02-12T12:02:57;40.90;;;23.80;;
29382;SDS011;16365;51.598;7.668;2023-02-12T12:05:30;34.30;;;20.92;;
29382;SDS011;16365;51.598;7.668;2023-02-12T12:08:04;34.25;;;19.45;;
29382;SDS011;16365;51.598;7.668;2023-02-12T12:11:15;33.30;;;18.63;;
29382;SDS011;16365;51.598;7.668;2023-02-12T12:13:59;29.50;;;18.17;;
29382;SDS011;16365;51.598;7.668;2023-02-12T12:19:51;34.33;;;20.50;;
29382;SDS011;16365;51.598;7.668;2023-02-12T12:25:19;33.85;;;20.30;;
29382;SDS011;16365;51.598;7.668;2023-02-12T12:30:38;33.92;;;20.20;;
29382;SDS011;16365;51.598;7.668;2023-02-12T12:33:20;31.70;;;19.80;;
29382;SDS011;16365;51.598;7.668;2023-02-12T12:35:59;34.00;;;19.48;;
29382;SDS011;16365;51.598;7.668;2023-02-12T12:47:38;34.85;;;19.00;;
29382;SDS011;16365;51.598;7.668;2023-02-12T12:53:28;51.50;;;30.80;;
29382;SDS011;16365;51.598;7.668;2023-02-12T12:56:20;61.97;;;36.67;;
29382;SDS011;16365;51.598;7.668;2023-02-12T13:04:58;36.15;;;20.00;;
29382;SDS011;16365;51.598;7.668;2023-02-12T13:07:47;31.73;;;20.23;;
29382;SDS011;16365;51.598;7.668;2023-02-12T13:13:31;35.08;;;21.88;;
29382;SDS011;16365;51.598;7.668;2023-02-12T13:16:04;42.35;;;24.27;;
29382;SDS011;16365;51.598;7.668;2023-02-12T13:18:49;34.20;;;20.83;;
29382;SDS011;16365;51.598;7.668;2023-02-12T13:21:38;32.70;;;19.35;;
29382;SDS011;16365;51.598;7.668;2023-02-12T13:26:58;27.13;;;17.05;;
29382;SDS011;16365;51.598;7.668;2023-02-12T13:29:35;30.20;;;17.20;;
29382;SDS011;16365;51.598;7.668;2023-02-12T13:34:59;24.67;;;15.38;;
29382;SDS011;16365;51.598;7.668;2023-02-12T13:40:05;28.00;;;16.33;;
29382;SDS011;16365;51.598;7.668;2023-02-12T13:42:44;27.08;;;16.70;;
29382;SDS011;16365;51.598;7.668;2023-02-12T13:50:36;31.73;;;16.35;;
29382;SDS011;16365;51.598;7.668;2023-02-12T14:05:13;27.77;;;16.20;;
29382;SDS011;16365;51.598;7.668;2023-02-12T14:07:46;28.75;;;15.60;;
29382;SDS011;16365;51.598;7.668;2023-02-12T14:10:34;27.80;;;15.98;;
29382;SDS011;16365;51.598;7.668;2023-02-12T14:15:44;28.17;;;16.17;;
29382;SDS011;16365;51.598;7.668;2023-02-12T14:18:30;26.38;;;15.73;;
29382;SDS011;16365;51.598;7.668;2023-02-12T14:23:43;26.92;;;15.90;;
29382;SDS011;16365;51.598;7.668;2023-02-12T14:26:14;29.55;;;17.13;;
29382;SDS011;16365;51.598;7.668;2023-02-12T14:33:48;28.70;;;16.15;;
29382;SDS011;16365;51.598;7.668;2023-02-12T14:36:17;26.77;;;15.35;;
29382;SDS011;16365;51.598;7.668;2023-02-12T14:46:56;31.55;;;17.33;;
29382;SDS011;16365;51.598;7.668;2023-02-12T14:49:29;25.48;;;16.42;;
29382;SDS011;16365;51.598;7.668;2023-02-12T14:57:28;32.33;;;17.90;;
29382;SDS011;16365;51.598;7.668;2023-02-12T15:00:00;23.90;;;16.45;;
29382;SDS011;16365;51.598;7.668;2023-02-12T15:02:44;31.40;;;18.40;;
29382;SDS011;16365;51.598;7.668;2023-02-12T15:05:33;29.83;;;18.52;;
29382;SDS011;16365;51.598;7.668;2023-02-12T15:13:51;44.35;;;27.58;;
29382;SDS011;16365;51.598;7.668;2023-02-12T15:16:28;42.67;;;27.60;;
29382;SDS011;16365;51.598;7.668;2023-02-12T15:19:04;43.72;;;28.20;;
29382;SDS011;16365;51.598;7.668;2023-02-12T15:21:43;41.83;;;26.60;;
29382;SDS011;16365;51.598;7.668;2023-02-12T15:24:12;39.88;;;26.35;;
29382;SDS011;16365;51.598;7.668;2023-02-12T15:26:49;40.78;;;25.23;;
29382;SDS011;16365;51.598;7.668;2023-02-12T15:29:20;43.08;;;26.77;;
29382;SDS011;16365;51.598;7.668;2023-02-12T15:31:56;41.55;;;25.13;;
29382;SDS011;16365;51.598;7.668;2023-02-12T15:34:27;39.45;;;25.00;;
29382;SDS011;16365;51.598;7.668;2023-02-12T15:36:56;41.22;;;25.10;;
29382;SDS011;16365;51.598;7.668;2023-02-12T15:39:29;41.85;;;25.75;;
29382;SDS011;16365;51.598;7.668;2023-02-12T15:45:23;41.80;;;24.83;;
29382;SDS011;16365;51.598;7.668;2023-02-12T15:48:12;38.30;;;23.52;;
29382;SDS011;16365;51.598;7.668;2023-02-12T15:50:48;42.13;;;24.02;;
29382;SDS011;16365;51.598;7.668;2023-02-12T15:53:23;37.80;;;23.80;;
29382;SDS011;16365;51.598;7.668;2023-02-12T15:55:57;39.05;;;24.42;;
29382;SDS011;16365;51.598;7.668;2023-02-12T15:58:27;38.85;;;23.45;;
29382;SDS011;16365;51.598;7.668;2023-02-12T16:01:17;39.47;;;22.88;;
29382;SDS011;16365;51.598;7.668;2023-02-12T16:04:07;35.88;;;21.40;;
29382;SDS011;16365;51.598;7.668;2023-02-12T16:06:35;33.93;;;22.07;;
29382;SDS011;16365;51.598;7.668;2023-02-12T16:09:05;31.08;;;20.33;;
29382;SDS011;16365;51.598;7.668;2023-02-12T16:11:36;35.60;;;21.70;;
29382;SDS011;16365;51.598;7.668;2023-02-12T16:14:04;33.47;;;20.23;;
29382;SDS011;16365;51.598;7.668;2023-02-12T16:16:48;35.08;;;20.92;;
29382;SDS011;16365;51.598;7.668;2023-02-12T16:24:38;33.67;;;21.00;;
29382;SDS011;16365;51.598;7.668;2023-02-12T16:27:26;36.22;;;20.92;;
29382;SDS011;16365;51.598;7.668;2023-02-12T16:30:04;34.72;;;22.55;;
29382;SDS011;16365;51.598;7.668;2023-02-12T16:32:48;33.72;;;20.55;;
29382;SDS011;16365;51.598;7.668;2023-02-12T16:37:46;34.67;;;21.58;;
29382;SDS011;16365;51.598;7.668;2023-02-12T16:40:22;36.90;;;22.15;;
29382;SDS011;16365;51.598;7.668;2023-02-12T16:50:34;38.10;;;23.48;;
29382;SDS011;16365;51.598;7.668;2023-02-12T16:53:05;40.60;;;24.65;;
29382;SDS011;16365;51.598;7.668;2023-02-12T16:55:34;41.72;;;24.73;;
29382;SDS011;16365;51.598;7.668;2023-02-12T16:58:02;40.38;;;22.77;;
29382;SDS011;16365;51.598;7.668;2023-02-12T17:00:28;38.25;;;22.80;;
29382;SDS011;16365;51.598;7.668;2023-02-12T17:02:55;36.33;;;22.02;;
29382;SDS011;16365;51.598;7.668;2023-02-12T17:05:22;38.10;;;23.23;;
29382;SDS011;16365;51.598;7.668;2023-02-12T17:07:49;42.10;;;23.63;;
29382;SDS011;16365;51.598;7.668;2023-02-12T17:10:16;38.70;;;23.90;;
29382;SDS011;16365;51.598;7.668;2023-02-12T17:12:52;36.47;;;22.05;;
29382;SDS011;16365;51.598;7.668;2023-02-12T17:15:23;40.22;;;24.52;;
29382;SDS011;16365;51.598;7.668;2023-02-12T17:17:54;43.15;;;24.20;;
29382;SDS011;16365;51.598;7.668;2023-02-12T17:20:22;41.90;;;24.58;;
29382;SDS011;16365;51.598;7.668;2023-02-12T17:25:18;37.00;;;21.60;;
29382;SDS011;16365;51.598;7.668;2023-02-12T17:27:45;45.00;;;26.73;;
29382;SDS011;16365;51.598;7.668;2023-02-12T17:30:16;38.13;;;23.88;;
29382;SDS011;16365;51.598;7.668;2023-02-12T17:32:45;42.42;;;25.92;;
29382;SDS011;16365;51.598;7.668;2023-02-12T17:35:15;43.53;;;24.92;;
29382;SDS011;16365;51.598;7.668;2023-02-12T17:37:41;42.45;;;24.73;;
29382;SDS011;16365;51.598;7.668;2023-02-12T17:40:08;40.10;;;23.90;;
29382;SDS011;16365;51.598;7.668;2023-02-12T17:45:03;40.65;;;23.45;;
29382;SDS011;16365;51.598;7.668;2023-02-12T17:47:30;46.53;;;25.17;;
29382;SDS011;16365;51.598;7.668;2023-02-12T17:49:56;46.95;;;25.83;;
29382;SDS011;16365;51.598;7.668;2023-02-12T17:52:25;41.28;;;25.38;;